createdAt,value
2022-10-25T00:02:00.938Z,98724.00
2022-10-25T00:04:04.037Z,98717.47
2022-10-25T00:06:12.357Z,98717.75
2022-10-25T00:08:15.081Z,98721.56
2022-10-25T00:10:20.118Z,98727.50
2022-10-25T00:12:44.787Z,98725.88
2022-10-25T00:15:06.321Z,98718.59
2022-10-25T00:17:09.503Z,98729.41
2022-10-25T00:19:30.738Z,98734.03
2022-10-25T00:21:33.474Z,98730.53
2022-10-25T00:23:54.448Z,98730.53
2022-10-25T00:26:44.651Z,98733.25
2022-10-25T00:28:47.477Z,98731.63
2022-10-25T00:31:17.296Z,98726.22
2022-10-25T00:33:19.921Z,98735.13
2022-10-25T00:35:40.715Z,98747.81
2022-10-25T00:38:01.565Z,98747.81
2022-10-25T00:40:41.246Z,98745.13
2022-10-25T00:43:20.657Z,98748.06
2022-10-25T00:45:25.988Z,98750.22
2022-10-25T00:48:06.104Z,98751.06
2022-10-25T00:50:52.236Z,98752.94
2022-10-25T00:53:51.322Z,98757.84
2022-10-25T00:56:40.705Z,98763.25
2022-10-25T00:59:20.880Z,98752.09
2022-10-25T01:02:01.953Z,98774.03
2022-10-25T01:04:43.766Z,98770.22
2022-10-25T01:07:24.137Z,98778.59
2022-10-25T01:09:30.591Z,98778.56
2022-10-25T01:12:10.388Z,98785.84
2022-10-25T01:15:08.917Z,98787.16
2022-10-25T01:17:33.265Z,98786.63
2022-10-25T01:20:17.191Z,98784.72
2022-10-25T01:23:15.680Z,98786.63
2022-10-25T01:25:57.759Z,98787.44
2022-10-25T01:28:37.726Z,98787.22
2022-10-25T01:31:07.993Z,98790.44
2022-10-25T01:33:35.260Z,98793.69
2022-10-25T01:36:21.024Z,98794.44
2022-10-25T01:39:10.600Z,98804.72
2022-10-25T01:41:54.891Z,98805.28
2022-10-25T01:44:16.214Z,98814.50
2022-10-25T01:46:37.299Z,98817.75
2022-10-25T01:49:24.634Z,98812.34
2022-10-25T01:52:04.344Z,98814.78
2022-10-25T01:54:26.851Z,98811.81
2022-10-25T01:57:20.889Z,98804.78
2022-10-25T01:59:51.601Z,98821.31
2022-10-25T02:02:36.307Z,98823.19
2022-10-25T02:04:59.722Z,98818.34
2022-10-25T02:07:29.551Z,98812.91
2022-10-25T02:10:19.994Z,98821.56
2022-10-25T02:12:30.398Z,98817.22
2022-10-25T02:15:10.332Z,98815.59
2022-10-25T02:17:51.640Z,98818.28
2022-10-25T02:20:33.992Z,98819.94
2022-10-25T02:23:15.835Z,98825.34
2022-10-25T02:25:55.809Z,98824.81
2022-10-25T02:28:36.349Z,98824.50
2022-10-25T02:31:16.341Z,98826.19
2022-10-25T02:34:14.868Z,98829.69
2022-10-25T02:36:57.629Z,98823.22
2022-10-25T02:39:37.588Z,98823.47
2022-10-25T02:41:58.721Z,98829.44
2022-10-25T02:44:01.278Z,98835.16
2022-10-25T02:47:00.032Z,98825.13
2022-10-25T02:49:40.005Z,98831.34
2022-10-25T02:52:19.839Z,98827.25
2022-10-25T02:54:40.682Z,98833.78
2022-10-25T02:57:20.663Z,98831.34
2022-10-25T02:59:41.886Z,98839.19
2022-10-25T03:02:21.710Z,98838.34
2022-10-25T03:04:24.450Z,98838.63
2022-10-25T03:06:27.009Z,98842.97
2022-10-25T03:08:48.102Z,98848.09
2022-10-25T03:10:51.513Z,98847.81
2022-10-25T03:13:12.687Z,98848.38
2022-10-25T03:15:15.248Z,98860.03
2022-10-25T03:17:17.901Z,98861.09
2022-10-25T03:19:20.447Z,98860.81
2022-10-25T03:21:22.963Z,98863.59
2022-10-25T03:24:02.854Z,98860.63
2022-10-25T03:26:23.882Z,98864.41
2022-10-25T03:28:45.182Z,98867.66
2022-10-25T03:31:29.888Z,98869.56
2022-10-25T03:33:51.465Z,98868.19
2022-10-25T03:35:55.159Z,98868.19
2022-10-25T03:38:34.960Z,98869.03
2022-10-25T03:40:55.926Z,98869.31
2022-10-25T03:43:35.415Z,98867.69
2022-10-25T03:46:15.396Z,98867.47
2022-10-25T03:48:27.197Z,98871.28
2022-10-25T03:50:29.722Z,98881.31
2022-10-25T03:52:32.415Z,98876.16
2022-10-25T03:54:35.491Z,98881.59
2022-10-25T03:56:38.028Z,98872.69
2022-10-25T03:58:40.663Z,98878.59
2022-10-25T04:00:43.272Z,98877.78
2022-10-25T04:02:46.012Z,98882.16
2022-10-25T04:04:48.762Z,98886.75
2022-10-25T04:06:51.330Z,98886.97
2022-10-25T04:08:53.867Z,98886.16
2022-10-25T04:10:56.460Z,98884.78
2022-10-25T04:12:59.206Z,98889.97
2022-10-25T04:15:01.875Z,98887.53
2022-10-25T04:17:06.219Z,98888.09
2022-10-25T04:19:08.719Z,98889.19
2022-10-25T04:21:11.334Z,98896.50
2022-10-25T04:23:13.902Z,98901.63
2022-10-25T04:25:16.545Z,98904.31
2022-10-25T04:27:19.148Z,98901.84
2022-10-25T04:29:21.854Z,98905.38
2022-10-25T04:31:24.734Z,98899.13
2022-10-25T04:33:27.286Z,98898.56
2022-10-25T04:35:29.892Z,98897.19
2022-10-25T04:37:32.561Z,98905.59
2022-10-25T04:39:35.073Z,98906.09
2022-10-25T04:41:37.635Z,98917.47
2022-10-25T04:43:40.269Z,98914.22
2022-10-25T04:45:42.830Z,98919.09
2022-10-25T04:47:45.455Z,98918.53
2022-10-25T04:49:48.108Z,98921.81
2022-10-25T04:53:55.386Z,98919.69
2022-10-25T04:56:03.227Z,98918.34
2022-10-25T04:58:05.995Z,98921.31
2022-10-25T05:00:09.338Z,98930.19
2022-10-25T05:02:12.628Z,98927.22
2022-10-25T05:04:15.179Z,98933.41
2022-10-25T05:06:25.533Z,98935.28
2022-10-25T05:08:28.275Z,98933.94
2022-10-25T05:10:30.831Z,98934.22
2022-10-25T05:12:33.389Z,98932.03
2022-10-25T05:14:36.069Z,98933.34
2022-10-25T05:16:39.474Z,98936.31
2022-10-25T05:18:42.995Z,98922.75
2022-10-25T05:20:52.342Z,98938.47
2022-10-25T05:22:55.251Z,98929.31
2022-10-25T05:24:57.838Z,98933.06
2022-10-25T05:27:00.426Z,98942.53
2022-10-25T05:29:05.530Z,98939.56
2022-10-25T05:31:15.377Z,98936.31
2022-10-25T05:33:17.959Z,98940.34
2022-10-25T05:35:20.586Z,98942.22
2022-10-25T05:37:23.267Z,98945.19
2022-10-25T05:39:26.099Z,98945.19
2022-10-25T05:41:30.807Z,98941.16
2022-10-25T05:43:36.095Z,98949.28
2022-10-25T05:45:38.656Z,98946.28
2022-10-25T05:47:41.292Z,98948.44
2022-10-25T05:49:43.854Z,98954.66
2022-10-25T05:51:46.468Z,98954.63
2022-10-25T05:53:51.553Z,98953.31
2022-10-25T05:55:54.107Z,98948.94
2022-10-25T05:57:56.753Z,98957.03
2022-10-25T05:59:59.270Z,98960.28
2022-10-25T06:02:02.143Z,98955.41
2022-10-25T06:04:05.078Z,98958.09
2022-10-25T06:06:10.236Z,98964.88
2022-10-25T06:08:12.823Z,98958.34
2022-10-25T06:10:15.503Z,98962.38
2022-10-25T06:12:18.098Z,98962.38
2022-10-25T06:14:20.629Z,98967.53
2022-10-25T06:16:24.263Z,98975.38
2022-10-25T06:18:27.335Z,98976.25
2022-10-25T06:20:30.118Z,98976.78
2022-10-25T06:22:32.875Z,98973.84
2022-10-25T06:24:35.462Z,98980.34
2022-10-25T06:26:39.096Z,98980.06
2022-10-25T06:28:41.981Z,98988.72
2022-10-25T06:30:44.549Z,98983.31
2022-10-25T06:32:47.389Z,98987.94
2022-10-25T06:35:08.389Z,98978.44
2022-10-25T06:37:11.029Z,98983.31
2022-10-25T06:39:14.787Z,98990.09
2022-10-25T06:41:20.337Z,98976.25
2022-10-25T06:43:22.931Z,98988.69
2022-10-25T06:45:25.619Z,98988.09
2022-10-25T06:47:28.249Z,98986.72
2022-10-25T06:49:30.952Z,98989.13
2022-10-25T06:52:11.791Z,98996.09
2022-10-25T06:54:32.654Z,98993.97
2022-10-25T06:56:36.342Z,99004.53
2022-10-25T06:58:57.920Z,98996.09
2022-10-25T07:01:14.665Z,98997.75
2022-10-25T07:03:17.439Z,99006.38
2022-10-25T07:05:20.015Z,99001.47
2022-10-25T07:07:41.325Z,99002.50
2022-10-25T07:09:44.007Z,99010.06
2022-10-25T07:11:46.665Z,99003.84
2022-10-25T07:14:08.853Z,99016.28
2022-10-25T07:16:12.979Z,99023.09
2022-10-25T07:18:15.787Z,99010.66
2022-10-25T07:20:37.253Z,99012.50
2022-10-25T07:22:39.845Z,99020.88
2022-10-25T07:25:01.070Z,99016.19
2022-10-25T07:27:03.888Z,99013.97
2022-10-25T07:29:06.631Z,99019.69
2022-10-25T07:31:46.603Z,99029.97
2022-10-25T07:33:50.910Z,99011.84
2022-10-25T07:36:12.352Z,99024.31
2022-10-25T07:38:15.621Z,99022.59
2022-10-25T07:40:36.694Z,99030.38
2022-10-25T07:42:58.010Z,99033.81
2022-10-25T07:45:22.283Z,99033.50
2022-10-25T07:47:27.009Z,99023.63
2022-10-25T07:49:29.697Z,99033.19
2022-10-25T07:51:50.969Z,99040.06
2022-10-25T07:53:53.927Z,99040.06
2022-10-25T07:55:56.586Z,99039.03
2022-10-25T07:58:17.845Z,99040.16
2022-10-25T08:00:20.442Z,99042.59
2022-10-25T08:02:41.732Z,99039.56
2022-10-25T08:04:44.892Z,99045.81
2022-10-25T08:06:47.467Z,99049.38
2022-10-25T08:08:50.249Z,99042.97
2022-10-25T08:11:11.567Z,99039.78
2022-10-25T08:13:14.182Z,99042.44
2022-10-25T08:15:17.889Z,99042.44
2022-10-25T08:17:20.592Z,99047.03
2022-10-25T08:19:23.196Z,99040.84
2022-10-25T08:21:44.213Z,99046.03
2022-10-25T08:23:46.870Z,99055.50
2022-10-25T08:25:49.602Z,99052.22
2022-10-25T08:27:52.356Z,99053.84
2022-10-25T08:30:13.510Z,99054.38
2022-10-25T08:32:53.737Z,99059.53
2022-10-25T08:35:15.653Z,99048.34
2022-10-25T08:37:36.639Z,99063.78
2022-10-25T08:39:40.133Z,99048.13
2022-10-25T08:41:56.101Z,99056.22
2022-10-25T08:44:26.160Z,99052.34
2022-10-25T08:46:54.601Z,99058.88
2022-10-25T08:49:16.497Z,99065.28
2022-10-25T08:51:43.486Z,99063.38
2022-10-25T08:54:25.123Z,99057.25
2022-10-25T08:57:23.703Z,99057.69
2022-10-25T08:59:47.399Z,99059.69
2022-10-25T09:01:56.365Z,99057.66
2022-10-25T09:04:00.279Z,99054.66
2022-10-25T09:06:47.861Z,99059.78
2022-10-25T09:09:04.287Z,99051.34
2022-10-25T09:11:21.848Z,99053.94
2022-10-25T09:13:50.052Z,99064.41
2022-10-25T09:16:01.614Z,99062.56
2022-10-25T09:18:14.878Z,99061.44
2022-10-25T09:20:20.795Z,99059.91
2022-10-25T09:22:29.646Z,99064.66
2022-10-25T09:24:48.005Z,99061.69
2022-10-25T09:27:05.160Z,99065.06
2022-10-25T09:29:24.749Z,99071.81
2022-10-25T09:31:28.175Z,99074.31
2022-10-25T09:33:33.191Z,99080.63
2022-10-25T09:35:44.314Z,99074.47
2022-10-25T09:37:53.550Z,99073.22
2022-10-25T09:40:01.424Z,99074.00
2022-10-25T09:42:25.886Z,99065.22
2022-10-25T09:44:40.672Z,99078.09
2022-10-25T09:46:51.417Z,99083.81
2022-10-25T09:49:03.599Z,99078.56
2022-10-25T09:51:15.023Z,99088.91
2022-10-25T09:53:21.821Z,99080.34
2022-10-25T09:55:37.218Z,99077.16
2022-10-25T09:57:40.015Z,99095.84
2022-10-25T09:59:46.667Z,99085.03
2022-10-25T10:01:49.646Z,99094.25
2022-10-25T10:03:55.791Z,99091.00
2022-10-25T10:06:08.732Z,99103.03
2022-10-25T10:08:11.447Z,99096.31
2022-10-25T10:10:21.141Z,99104.72
2022-10-25T10:12:31.126Z,99096.34
2022-10-25T10:15:12.684Z,99099.38
2022-10-25T10:17:18.648Z,99113.53
2022-10-25T10:19:42.281Z,99113.81
2022-10-25T10:21:51.141Z,99108.09
2022-10-25T10:24:06.066Z,99115.13
2022-10-25T10:26:14.334Z,99112.47
2022-10-25T10:28:17.678Z,99116.25
2022-10-25T10:30:29.435Z,99111.66
2022-10-25T10:32:35.304Z,99112.00
2022-10-25T10:34:51.261Z,99112.00
2022-10-25T10:37:27.975Z,99110.72
2022-10-25T10:39:49.785Z,99109.63
2022-10-25T10:42:05.042Z,99112.38
2022-10-25T10:44:13.228Z,99114.31
2022-10-25T10:46:18.200Z,99118.97
2022-10-25T10:48:24.277Z,99110.59
2022-10-25T10:50:32.038Z,99110.88
2022-10-25T10:52:42.636Z,99114.13
2022-10-25T10:54:48.279Z,99116.56
2022-10-25T10:57:02.628Z,99111.94
2022-10-25T10:59:05.521Z,99112.47
2022-10-25T11:01:33.540Z,99116.00
2022-10-25T11:03:49.079Z,99110.81
2022-10-25T11:06:02.965Z,99128.44
2022-10-25T11:08:08.296Z,99121.31
2022-10-25T11:10:16.753Z,99119.91
2022-10-25T11:12:19.525Z,99127.50
2022-10-25T11:14:22.459Z,99135.06
2022-10-25T11:16:59.210Z,99138.56
2022-10-25T11:19:26.368Z,99140.41
2022-10-25T11:21:50.258Z,99148.25
2022-10-25T11:24:15.069Z,99138.72
2022-10-25T11:26:45.117Z,99144.97
2022-10-25T11:29:37.180Z,99147.94
2022-10-25T11:32:29.046Z,99161.78
2022-10-25T11:35:00.827Z,99157.41
2022-10-25T11:37:15.167Z,99163.66
2022-10-25T11:39:27.688Z,99163.88
2022-10-25T11:41:53.644Z,99160.59
2022-10-25T11:44:05.371Z,99164.91
2022-10-25T11:46:42.526Z,99168.69
2022-10-25T11:49:10.077Z,99172.75
2022-10-25T11:51:21.412Z,99168.91
2022-10-25T11:53:35.880Z,99172.38
2022-10-25T11:55:56.374Z,99176.91
2022-10-25T11:58:08.265Z,99184.78
2022-10-25T12:00:22.915Z,99182.34
2022-10-25T12:02:56.580Z,99180.47
2022-10-25T12:05:22.868Z,99190.88
2022-10-25T12:07:40.257Z,99189.06
2022-10-25T12:09:58.150Z,99191.03
2022-10-25T12:12:08.651Z,99200.84
2022-10-25T12:14:16.699Z,99192.75
2022-10-25T12:16:21.587Z,99193.59
2022-10-25T12:18:30.037Z,99194.94
2022-10-25T12:22:46.330Z,99205.25
2022-10-25T12:25:01.401Z,99203.13
2022-10-25T12:27:05.807Z,99202.91
2022-10-25T12:29:34.818Z,99206.69
2022-10-25T12:31:43.194Z,99206.69
2022-10-25T12:33:55.755Z,99216.72
2022-10-25T12:36:04.059Z,99211.28
2022-10-25T12:38:13.136Z,99221.34
2022-10-25T12:40:22.528Z,99223.78
2022-10-25T12:42:43.651Z,99227.88
2022-10-25T12:45:14.424Z,99222.94
2022-10-25T12:47:33.304Z,99226.69
2022-10-25T12:50:08.296Z,99226.16
2022-10-25T12:52:35.086Z,99231.84
2022-10-25T12:55:25.968Z,99235.91
2022-10-25T12:57:34.528Z,99234.00
2022-10-25T13:00:10.042Z,99238.34
2022-10-25T13:02:46.163Z,99236.97
2022-10-25T13:05:07.066Z,99237.78
2022-10-25T13:07:11.707Z,99243.50
2022-10-25T13:09:16.794Z,99246.50
2022-10-25T13:11:19.565Z,99242.16
2022-10-25T13:13:33.880Z,99249.75
2022-10-25T13:15:59.210Z,99251.63
2022-10-25T13:18:05.966Z,99249.75
2022-10-25T13:20:20.734Z,99251.97
2022-10-25T13:22:46.656Z,99245.16
2022-10-25T13:24:49.211Z,99260.94
2022-10-25T13:27:16.277Z,99258.84
2022-10-25T13:30:02.678Z,99257.81
2022-10-25T13:32:17.890Z,99259.72
2022-10-25T13:34:28.634Z,99256.22
2022-10-25T13:36:51.814Z,99262.19
2022-10-25T13:39:05.508Z,99264.38
2022-10-25T13:41:18.774Z,99267.91
2022-10-25T13:43:22.061Z,99261.13
2022-10-25T13:45:40.582Z,99255.97
2022-10-25T13:47:47.330Z,99268.72
2022-10-25T13:49:49.974Z,99268.47
2022-10-25T13:51:56.471Z,99266.31
2022-10-25T13:54:06.112Z,99268.72
2022-10-25T13:56:32.455Z,99269.28
2022-10-25T13:58:40.910Z,99270.34
2022-10-25T14:00:48.128Z,99271.72
2022-10-25T14:03:08.668Z,99263.84
2022-10-25T14:05:11.941Z,99272.78
2022-10-25T14:07:46.112Z,99276.34
2022-10-25T14:09:53.514Z,99286.88
2022-10-25T14:12:08.980Z,99277.41
2022-10-25T14:14:32.158Z,99291.25
2022-10-25T14:16:40.498Z,99295.03
2022-10-25T14:18:43.829Z,99293.38
2022-10-25T14:20:49.533Z,99290.97
2022-10-25T14:22:55.620Z,99288.50
2022-10-25T14:25:00.937Z,99292.56
2022-10-25T14:27:03.567Z,99297.97
2022-10-25T14:29:14.632Z,99300.69
2022-10-25T14:31:21.855Z,99305.59
2022-10-25T14:33:36.758Z,99304.78
2022-10-25T14:35:53.788Z,99314.00
2022-10-25T14:37:56.388Z,99305.88
2022-10-25T14:39:59.026Z,99310.19
2022-10-25T14:42:03.127Z,99308.28
2022-10-25T14:44:21.737Z,99316.69
2022-10-25T14:46:26.850Z,99311.81
2022-10-25T14:48:32.610Z,99316.97
2022-10-25T14:50:35.616Z,99318.59
2022-10-25T14:52:38.309Z,99321.88
2022-10-25T14:54:42.145Z,99330.81
2022-10-25T14:56:51.163Z,99321.31
2022-10-25T14:58:55.275Z,99320.53
2022-10-25T15:01:01.924Z,99317.25
2022-10-25T15:03:06.379Z,99319.69
2022-10-25T15:05:18.673Z,99323.22
2022-10-25T15:07:30.632Z,99320.53
2022-10-25T15:09:49.046Z,99325.66
2022-10-25T15:12:11.757Z,99335.69
2022-10-25T15:14:22.117Z,99332.97
2022-10-25T15:16:36.767Z,99336.25
2022-10-25T15:18:39.352Z,99343.56
2022-10-25T15:20:41.919Z,99337.59
2022-10-25T15:22:49.916Z,99346.50
2022-10-25T15:24:52.826Z,99353.03
2022-10-25T15:27:01.101Z,99352.78
2022-10-25T15:29:03.744Z,99351.69
2022-10-25T15:31:07.505Z,99358.72
2022-10-25T15:33:13.990Z,99356.00
2022-10-25T15:35:24.777Z,99358.72
2022-10-25T15:37:29.838Z,99367.69
2022-10-25T15:39:33.110Z,99358.47
2022-10-25T15:41:35.765Z,99366.84
2022-10-25T15:43:38.374Z,99362.00
2022-10-25T15:45:41.410Z,99367.13
2022-10-25T15:47:47.555Z,99367.94
2022-10-25T15:49:53.581Z,99377.16
2022-10-25T15:51:56.301Z,99380.69
2022-10-25T15:53:59.008Z,99377.97
2022-10-25T15:56:02.874Z,99379.31
2022-10-25T15:58:09.689Z,99383.13
2022-10-25T16:00:15.420Z,99379.59
2022-10-25T16:02:26.390Z,99385.00
2022-10-25T16:04:29.248Z,99382.03
2022-10-25T16:06:31.832Z,99385.56
2022-10-25T16:10:42.428Z,99385.25
2022-10-25T16:12:48.965Z,99387.97
2022-10-25T16:14:53.140Z,99385.53
2022-10-25T16:16:58.448Z,99398.00
2022-10-25T16:19:03.572Z,99393.38
2022-10-25T16:21:06.369Z,99406.91
2022-10-25T16:23:08.967Z,99398.78
2022-10-25T16:25:12.627Z,99399.84
2022-10-25T16:27:15.350Z,99397.94
2022-10-25T16:29:24.476Z,99397.94
2022-10-25T16:31:27.221Z,99416.91
2022-10-25T16:33:29.929Z,99405.25
2022-10-25T16:35:32.453Z,99417.44
2022-10-25T16:37:35.077Z,99412.56
2022-10-25T16:39:37.589Z,99412.56
2022-10-25T16:41:43.347Z,99416.09
2022-10-25T16:43:49.119Z,99423.97
2022-10-25T16:45:51.842Z,99424.78
2022-10-25T16:47:58.038Z,99423.13
2022-10-25T16:50:00.662Z,99427.47
2022-10-25T16:52:05.636Z,99433.13
2022-10-25T16:54:08.769Z,99426.06
2022-10-25T16:56:11.870Z,99431.19
2022-10-25T16:58:14.990Z,99441.66
2022-10-25T17:00:17.850Z,99443.22
2022-10-25T17:02:22.774Z,99442.66
2022-10-25T17:04:26.890Z,99435.03
2022-10-25T17:06:40.664Z,99435.81
2022-10-25T17:08:45.007Z,99433.41
2022-10-25T17:10:47.700Z,99436.34
2022-10-25T17:13:01.706Z,99441.78
2022-10-25T17:15:04.642Z,99438.25
2022-10-25T17:17:07.303Z,99445.59
2022-10-25T17:19:11.205Z,99439.91
2022-10-25T17:21:16.310Z,99449.91
2022-10-25T17:23:19.359Z,99443.94
2022-10-25T17:25:21.978Z,99440.72
2022-10-25T17:27:24.577Z,99447.50
2022-10-25T17:29:27.222Z,99447.75
2022-10-25T17:31:30.115Z,99445.03
2022-10-25T17:33:32.783Z,99444.72
2022-10-25T17:35:35.338Z,99452.84
2022-10-25T17:37:42.831Z,99448.00
2022-10-25T17:39:45.393Z,99448.00
2022-10-25T17:41:47.995Z,99453.97
2022-10-25T17:43:53.228Z,99454.25
2022-10-25T17:46:04.330Z,99453.44
2022-10-25T17:48:07.304Z,99461.28
2022-10-25T17:50:10.970Z,99458.59
2022-10-25T17:52:13.467Z,99455.31
2022-10-25T17:54:18.016Z,99460.75
2022-10-25T17:56:22.182Z,99470.50
2022-10-25T17:58:25.393Z,99467.81
2022-10-25T18:00:28.052Z,99472.13
2022-10-25T18:02:30.759Z,99479.13
2022-10-25T18:04:52.964Z,99476.97
2022-10-25T18:06:56.051Z,99476.16
2022-10-25T18:09:00.217Z,99487.00
2022-10-25T18:11:29.000Z,99487.00
2022-10-25T18:13:31.556Z,99491.31
2022-10-25T18:15:35.874Z,99491.06
2022-10-25T18:17:39.774Z,99493.22
2022-10-25T18:19:42.430Z,99489.09
2022-10-25T18:21:45.064Z,99493.78
2022-10-25T18:23:47.600Z,99498.38
2022-10-25T18:25:52.090Z,99508.38
2022-10-25T18:27:54.716Z,99505.09
2022-10-25T18:29:57.241Z,99515.63
2022-10-25T18:31:59.921Z,99505.59
2022-10-25T18:34:04.087Z,99516.72
2022-10-25T18:36:19.458Z,99515.91
2022-10-25T18:38:22.725Z,99516.41
2022-10-25T18:40:25.485Z,99510.19
2022-10-25T18:42:28.268Z,99511.28
2022-10-25T18:44:31.153Z,99519.69
2022-10-25T18:46:34.077Z,99517.50
2022-10-25T18:48:37.100Z,99512.09
2022-10-25T18:50:41.867Z,99524.25
2022-10-25T18:52:45.284Z,99514.81
2022-10-25T18:54:47.836Z,99520.22
2022-10-25T18:56:50.433Z,99526.44
2022-10-25T18:58:55.219Z,99526.75
2022-10-25T19:01:05.283Z,99523.75
2022-10-25T19:03:08.084Z,99529.13
2022-10-25T19:05:10.995Z,99528.09
2022-10-25T19:07:13.582Z,99537.81
2022-10-25T19:09:16.181Z,99537.50
2022-10-25T19:11:19.139Z,99546.19
2022-10-25T19:13:22.376Z,99542.09
2022-10-25T19:15:24.985Z,99551.59
2022-10-25T19:17:27.630Z,99548.13
2022-10-25T19:19:30.719Z,99543.78
2022-10-25T19:21:34.298Z,99556.75
2022-10-25T19:23:39.356Z,99558.34
2022-10-25T19:25:42.281Z,99561.56
2022-10-25T19:27:45.180Z,99562.59
2022-10-25T19:29:49.421Z,99577.75
2022-10-25T19:31:52.244Z,99570.47
2022-10-25T19:33:58.469Z,99566.13
2022-10-25T19:36:09.403Z,99567.72
2022-10-25T19:38:12.078Z,99563.88
2022-10-25T19:40:14.906Z,99572.31
2022-10-25T19:42:17.469Z,99568.47
2022-10-25T19:44:20.168Z,99566.81
2022-10-25T19:46:22.742Z,99563.59
2022-10-25T19:48:26.262Z,99572.00
2022-10-25T19:50:29.019Z,99578.22
2022-10-25T19:52:34.578Z,99575.81
2022-10-25T19:54:37.157Z,99579.88
2022-10-25T19:56:39.666Z,99583.06
2022-10-25T19:58:42.878Z,99584.47
2022-10-25T20:00:45.623Z,99579.06
2022-10-25T20:02:48.412Z,99586.59
2022-10-25T20:04:51.012Z,99598.19
2022-10-25T20:06:53.606Z,99601.38
2022-10-25T20:08:57.540Z,99593.28
2022-10-25T20:11:01.751Z,99594.41
2022-10-25T20:13:04.871Z,99591.09
2022-10-25T20:15:08.031Z,99590.03
2022-10-25T20:17:12.647Z,99587.25
2022-10-25T20:19:15.277Z,99596.69
2022-10-25T20:21:20.381Z,99586.69
2022-10-25T20:23:22.891Z,99598.06
2022-10-25T20:25:27.137Z,99595.88
2022-10-25T20:27:31.386Z,99601.28
2022-10-25T20:29:34.551Z,99595.31
2022-10-25T20:31:37.431Z,99595.84
2022-10-25T20:33:40.629Z,99596.63
2022-10-25T20:35:47.198Z,99605.00
2022-10-25T20:37:49.975Z,99604.75
2022-10-25T20:39:52.719Z,99609.34
2022-10-25T20:41:55.227Z,99610.22
2022-10-25T20:44:00.681Z,99606.69
2022-10-25T20:46:04.245Z,99612.34
2022-10-25T20:48:06.904Z,99616.13
2022-10-25T20:50:09.844Z,99628.28
2022-10-25T20:52:12.359Z,99620.75
2022-10-25T20:54:15.386Z,99620.97
2022-10-25T20:56:19.512Z,99621.22
2022-10-25T20:58:23.326Z,99625.44
2022-10-25T21:00:25.853Z,99631.50
2022-10-25T21:02:28.694Z,99634.97
2022-10-25T21:04:54.006Z,99627.59
2022-10-25T21:06:53.932Z,99624.06
2022-10-25T21:08:56.513Z,99628.38
2022-10-25T21:11:04.704Z,99625.66
2022-10-25T21:13:08.263Z,99642.69
2022-10-25T21:15:12.261Z,99639.47
2022-10-25T21:17:15.521Z,99641.59
2022-10-25T21:19:18.370Z,99651.63
2022-10-25T21:21:21.699Z,99650.28
2022-10-25T21:23:24.505Z,99652.41
2022-10-25T21:25:27.258Z,99652.69
2022-10-25T21:27:30.072Z,99658.66
2022-10-25T21:29:32.677Z,99650.28
2022-10-25T21:31:35.318Z,99658.91
2022-10-25T21:33:38.821Z,99657.81
2022-10-25T21:35:41.383Z,99658.16
2022-10-25T21:37:46.836Z,99662.75
2022-10-25T21:39:51.657Z,99659.53
2022-10-25T21:41:54.303Z,99659.53
2022-10-25T21:43:58.341Z,99669.53
2022-10-25T21:46:04.774Z,99677.38
2022-10-25T21:48:07.534Z,99670.34
2022-10-25T21:50:10.319Z,99675.53
2022-10-25T21:52:12.862Z,99676.06
2022-10-25T21:54:15.436Z,99676.31
2022-10-25T21:56:20.111Z,99682.53
2022-10-25T21:58:22.674Z,99683.63
2022-10-25T22:00:25.209Z,99682.16
2022-10-25T22:02:27.932Z,99685.13
2022-10-25T22:04:30.784Z,99679.41
2022-10-25T22:06:33.386Z,99685.94
2022-10-25T22:08:36.089Z,99682.59
2022-10-25T22:10:38.682Z,99694.56
2022-10-25T22:12:41.258Z,99688.81
2022-10-25T22:14:43.793Z,99691.03
2022-10-25T22:16:46.474Z,99692.34
2022-10-25T22:18:54.965Z,99691.28
2022-10-25T22:21:03.376Z,99689.91
2022-10-25T22:23:05.924Z,99695.84
2022-10-25T22:25:08.727Z,99690.78
2022-10-25T22:27:11.240Z,99703.78
2022-10-25T22:29:15.135Z,99707.25
2022-10-25T22:31:18.704Z,99706.94
2022-10-25T22:33:21.355Z,99703.66
2022-10-25T22:35:24.035Z,99712.06
2022-10-25T22:37:26.521Z,99709.38
2022-10-25T22:39:29.082Z,99718.31
2022-10-25T22:41:32.159Z,99713.34
2022-10-25T22:43:36.162Z,99719.06
2022-10-25T22:45:38.684Z,99724.78
2022-10-25T22:47:41.231Z,99725.59
2022-10-25T22:49:43.831Z,99729.13
2022-10-25T22:51:46.487Z,99735.59
2022-10-25T22:53:49.202Z,99734.94
2022-10-25T22:55:59.762Z,99745.03
2022-10-25T22:58:02.242Z,99745.28
2022-10-25T23:00:05.373Z,99742.81
2022-10-25T23:02:07.996Z,99752.25
2022-10-25T23:04:10.898Z,99752.25
2022-10-25T23:06:15.800Z,99752.72
2022-10-25T23:08:18.285Z,99749.22
2022-10-25T23:10:20.806Z,99759.13
2022-10-25T23:12:23.397Z,99764.31
2022-10-25T23:14:25.933Z,99767.25
2022-10-25T23:16:29.477Z,99768.88
2022-10-25T23:18:32.738Z,99763.97
2022-10-25T23:20:35.247Z,99775.00
2022-10-25T23:22:37.816Z,99773.38
2022-10-25T23:24:40.421Z,99781.50
2022-10-25T23:26:43.210Z,99784.50
2022-10-25T23:28:46.044Z,99786.09
2022-10-25T23:30:48.605Z,99785.25
2022-10-25T23:32:52.242Z,99793.28
2022-10-25T23:34:57.024Z,99805.91
2022-10-25T23:36:59.787Z,99792.97
2022-10-25T23:39:02.346Z,99796.72
2022-10-25T23:41:05.926Z,99798.03
2022-10-25T23:43:08.896Z,99798.53
2022-10-25T23:45:11.788Z,99799.19
2022-10-25T23:47:14.293Z,99805.16
2022-10-25T23:49:16.854Z,99810.22
2022-10-25T23:51:19.449Z,99806.72
2022-10-25T23:53:22.171Z,99807.63
2022-10-25T23:55:24.698Z,99814.59
2022-10-25T23:57:27.675Z,99816.22
2022-10-25T23:59:30.222Z,99817.75
